sensor_id;sensor_type;location;lat;lon;timestamp;temperature;humidity
12967;DHT22;6548;49.996;8.238;2023-03-05T00:01:40;5.30;99.90
12967;DHT22;6548;49.996;8.238;2023-03-05T00:04:09;5.30;99.90
12967;DHT22;6548;49.996;8.238;2023-03-05T00:06:36;5.30;99.90
12967;DHT22;6548;49.996;8.238;2023-03-05T00:09:01;5.30;99.90
12967;DHT22;6548;49.996;8.238;2023-03-05T00:11:28;5.90;99.90
12967;DHT22;6548;49.996;8.238;2023-03-05T00:13:55;5.30;99.90
12967;DHT22;6548;49.996;8.238;2023-03-05T00:16:21;5.30;99.90
12967;DHT22;6548;49.996;8.238;2023-03-05T00:18:47;5.20;99.90
12967;DHT22;6548;49.996;8.238;2023-03-05T00:21:21;5.20;99.90
12967;DHT22;6548;49.996;8.238;2023-03-05T00:23:47;6.00;99.90
12967;DHT22;6548;49.996;8.238;2023-03-05T00:26:15;5.20;99.90
12967;DHT22;6548;49.996;8.238;2023-03-05T00:28:41;5.20;99.90
12967;DHT22;6548;49.996;8.238;2023-03-05T00:31:06;5.20;99.90
12967;DHT22;6548;49.996;8.238;2023-03-05T00:33:32;5.20;99.90
12967;DHT22;6548;49.996;8.238;2023-03-05T00:35:58;5.20;99.90
12967;DHT22;6548;49.996;8.238;2023-03-05T00:38:26;5.20;99.90
12967;DHT22;6548;49.996;8.238;2023-03-05T00:40:52;5.20;99.90
12967;DHT22;6548;49.996;8.238;2023-03-05T00:43:17;5.20;99.90
12967;DHT22;6548;49.996;8.238;2023-03-05T00:45:43;5.20;99.90
12967;DHT22;6548;49.996;8.238;2023-03-05T00:48:08;5.20;99.90
12967;DHT22;6548;49.996;8.238;2023-03-05T00:50:34;5.20;99.90
12967;DHT22;6548;49.996;8.238;2023-03-05T00:52:59;5.20;99.90
12967;DHT22;6548;49.996;8.238;2023-03-05T00:55:25;5.20;99.90
12967;DHT22;6548;49.996;8.238;2023-03-05T00:57:50;5.30;99.90
12967;DHT22;6548;49.996;8.238;2023-03-05T01:00:16;5.20;99.90
12967;DHT22;6548;49.996;8.238;2023-03-05T01:02:42;5.30;99.90
12967;DHT22;6548;49.996;8.238;2023-03-05T01:05:11;5.20;99.90
12967;DHT22;6548;49.996;8.238;2023-03-05T01:07:38;5.30;99.90
12967;DHT22;6548;49.996;8.238;2023-03-05T01:10:04;5.20;99.90
12967;DHT22;6548;49.996;8.238;2023-03-05T01:12:30;5.20;99.90
12967;DHT22;6548;49.996;8.238;2023-03-05T01:14:55;5.20;99.90
12967;DHT22;6548;49.996;8.238;2023-03-05T01:17:21;5.20;99.90
12967;DHT22;6548;49.996;8.238;2023-03-05T01:19:46;5.20;99.90
12967;DHT22;6548;49.996;8.238;2023-03-05T01:22:12;5.20;99.90
12967;DHT22;6548;49.996;8.238;2023-03-05T01:24:38;6.20;99.90
12967;DHT22;6548;49.996;8.238;2023-03-05T01:27:03;5.20;99.90
12967;DHT22;6548;49.996;8.238;2023-03-05T01:29:29;5.20;99.90
12967;DHT22;6548;49.996;8.238;2023-03-05T01:31:55;5.20;99.90
12967;DHT22;6548;49.996;8.238;2023-03-05T01:34:20;5.20;99.90
12967;DHT22;6548;49.996;8.238;2023-03-05T01:36:46;5.20;99.90
12967;DHT22;6548;49.996;8.238;2023-03-05T01:39:14;5.20;99.90
12967;DHT22;6548;49.996;8.238;2023-03-05T01:41:40;6.30;99.90
12967;DHT22;6548;49.996;8.238;2023-03-05T01:44:05;5.10;99.90
12967;DHT22;6548;49.996;8.238;2023-03-05T01:46:36;5.20;99.90
12967;DHT22;6548;49.996;8.238;2023-03-05T01:52:05;5.10;99.90
12967;DHT22;6548;49.996;8.238;2023-03-05T01:54:47;5.10;99.90
12967;DHT22;6548;49.996;8.238;2023-03-05T01:57:17;5.10;99.90
12967;DHT22;6548;49.996;8.238;2023-03-05T01:59:45;5.10;99.90
12967;DHT22;6548;49.996;8.238;2023-03-05T02:02:12;5.10;99.90
12967;DHT22;6548;49.996;8.238;2023-03-05T02:04:47;5.00;99.90
12967;DHT22;6548;49.996;8.238;2023-03-05T02:07:15;5.00;99.90
12967;DHT22;6548;49.996;8.238;2023-03-05T02:09:41;5.00;99.90
12967;DHT22;6548;49.996;8.238;2023-03-05T02:12:08;5.00;99.90
12967;DHT22;6548;49.996;8.238;2023-03-05T02:14:35;5.10;99.90
12967;DHT22;6548;49.996;8.238;2023-03-05T02:17:01;5.10;99.90
12967;DHT22;6548;49.996;8.238;2023-03-05T02:19:27;5.10;99.90
12967;DHT22;6548;49.996;8.238;2023-03-05T02:21:52;5.10;99.90
12967;DHT22;6548;49.996;8.238;2023-03-05T02:24:33;5.20;99.90
12967;DHT22;6548;49.996;8.238;2023-03-05T02:27:00;5.10;99.90
12967;DHT22;6548;49.996;8.238;2023-03-05T02:29:27;5.20;99.90
12967;DHT22;6548;49.996;8.238;2023-03-05T02:31:54;5.10;99.90
12967;DHT22;6548;49.996;8.238;2023-03-05T02:34:21;5.20;99.90
12967;DHT22;6548;49.996;8.238;2023-03-05T02:36:47;5.20;99.90
12967;DHT22;6548;49.996;8.238;2023-03-05T02:39:15;5.30;99.90
12967;DHT22;6548;49.996;8.238;2023-03-05T02:41:40;5.40;99.90
12967;DHT22;6548;49.996;8.238;2023-03-05T02:44:06;5.40;99.90
12967;DHT22;6548;49.996;8.238;2023-03-05T02:46:32;5.20;99.90
12967;DHT22;6548;49.996;8.238;2023-03-05T02:48:57;5.20;99.90
12967;DHT22;6548;49.996;8.238;2023-03-05T02:51:23;5.20;99.90
12967;DHT22;6548;49.996;8.238;2023-03-05T02:53:48;5.20;99.90
12967;DHT22;6548;49.996;8.238;2023-03-05T02:56:14;5.10;99.90
12967;DHT22;6548;49.996;8.238;2023-03-05T02:58:40;5.20;99.90
12967;DHT22;6548;49.996;8.238;2023-03-05T03:01:07;5.30;99.90
12967;DHT22;6548;49.996;8.238;2023-03-05T03:03:32;5.20;99.90
12967;DHT22;6548;49.996;8.238;2023-03-05T03:05:58;5.20;99.90
12967;DHT22;6548;49.996;8.238;2023-03-05T03:08:24;5.10;99.90
12967;DHT22;6548;49.996;8.238;2023-03-05T03:10:49;5.10;99.90
12967;DHT22;6548;49.996;8.238;2023-03-05T03:13:15;5.10;99.90
12967;DHT22;6548;49.996;8.238;2023-03-05T03:15:40;5.00;99.90
12967;DHT22;6548;49.996;8.238;2023-03-05T03:18:06;5.00;99.90
12967;DHT22;6548;49.996;8.238;2023-03-05T03:20:31;5.00;99.90
12967;DHT22;6548;49.996;8.238;2023-03-05T03:22:59;5.00;99.90
12967;DHT22;6548;49.996;8.238;2023-03-05T03:25:25;4.90;99.90
12967;DHT22;6548;49.996;8.238;2023-03-05T03:27:50;4.90;99.90
12967;DHT22;6548;49.996;8.238;2023-03-05T03:30:17;5.00;99.90
12967;DHT22;6548;49.996;8.238;2023-03-05T03:32:42;5.70;99.90
12967;DHT22;6548;49.996;8.238;2023-03-05T03:35:09;5.00;99.90
12967;DHT22;6548;49.996;8.238;2023-03-05T03:37:35;4.90;99.90
12967;DHT22;6548;49.996;8.238;2023-03-05T03:40:01;4.90;99.90
12967;DHT22;6548;49.996;8.238;2023-03-05T03:42:29;5.10;99.90
12967;DHT22;6548;49.996;8.238;2023-03-05T03:44:55;5.00;99.90
12967;DHT22;6548;49.996;8.238;2023-03-05T03:47:20;5.00;99.90
12967;DHT22;6548;49.996;8.238;2023-03-05T03:49:46;5.00;99.90
12967;DHT22;6548;49.996;8.238;2023-03-05T03:52:11;5.00;99.90
12967;DHT22;6548;49.996;8.238;2023-03-05T03:54:37;5.10;99.90
12967;DHT22;6548;49.996;8.238;2023-03-05T03:57:02;5.00;99.90
12967;DHT22;6548;49.996;8.238;2023-03-05T03:59:28;5.00;99.90
12967;DHT22;6548;49.996;8.238;2023-03-05T04:01:54;5.00;99.90
12967;DHT22;6548;49.996;8.238;2023-03-05T04:04:19;4.90;99.90
12967;DHT22;6548;49.996;8.238;2023-03-05T04:06:45;4.90;99.90
12967;DHT22;6548;49.996;8.238;2023-03-05T04:09:10;4.90;99.90
12967;DHT22;6548;49.996;8.238;2023-03-05T04:11:36;4.90;99.90
12967;DHT22;6548;49.996;8.238;2023-03-05T04:14:03;4.90;99.90
12967;DHT22;6548;49.996;8.238;2023-03-05T04:16:29;6.00;99.90
12967;DHT22;6548;49.996;8.238;2023-03-05T04:18:54;4.90;99.90
12967;DHT22;6548;49.996;8.238;2023-03-05T04:21:20;4.90;99.90
12967;DHT22;6548;49.996;8.238;2023-03-05T04:23:45;4.90;99.90
12967;DHT22;6548;49.996;8.238;2023-03-05T04:26:11;4.90;99.90
12967;DHT22;6548;49.996;8.238;2023-03-05T04:28:36;4.80;99.90
12967;DHT22;6548;49.996;8.238;2023-03-05T04:31:03;4.80;99.90
12967;DHT22;6548;49.996;8.238;2023-03-05T04:33:29;4.70;99.90
12967;DHT22;6548;49.996;8.238;2023-03-05T04:35:54;4.60;99.90
12967;DHT22;6548;49.996;8.238;2023-03-05T04:38:20;4.50;99.90
12967;DHT22;6548;49.996;8.238;2023-03-05T04:40:46;4.50;99.90
12967;DHT22;6548;49.996;8.238;2023-03-05T04:43:12;5.00;99.90
12967;DHT22;6548;49.996;8.238;2023-03-05T04:45:41;4.40;99.90
12967;DHT22;6548;49.996;8.238;2023-03-05T04:48:08;4.40;99.90
12967;DHT22;6548;49.996;8.238;2023-03-05T04:50:34;4.40;99.90
12967;DHT22;6548;49.996;8.238;2023-03-05T04:52:59;4.50;99.90
12967;DHT22;6548;49.996;8.238;2023-03-05T04:55:25;4.40;99.90
12967;DHT22;6548;49.996;8.238;2023-03-05T04:57:51;4.40;99.90
12967;DHT22;6548;49.996;8.238;2023-03-05T05:00:17;4.50;99.90
12967;DHT22;6548;49.996;8.238;2023-03-05T05:02:45;4.50;99.90
12967;DHT22;6548;49.996;8.238;2023-03-05T05:05:12;4.50;99.90
12967;DHT22;6548;49.996;8.238;2023-03-05T05:07:38;4.50;99.90
12967;DHT22;6548;49.996;8.238;2023-03-05T05:10:05;4.50;99.90
12967;DHT22;6548;49.996;8.238;2023-03-05T05:12:33;4.50;99.90
12967;DHT22;6548;49.996;8.238;2023-03-05T05:14:59;4.50;99.90
12967;DHT22;6548;49.996;8.238;2023-03-05T05:17:25;4.40;99.90
12967;DHT22;6548;49.996;8.238;2023-03-05T05:19:51;4.40;99.90
12967;DHT22;6548;49.996;8.238;2023-03-05T05:22:17;4.40;99.90
12967;DHT22;6548;49.996;8.238;2023-03-05T05:24:42;4.50;99.90
12967;DHT22;6548;49.996;8.238;2023-03-05T05:27:08;4.50;99.90
12967;DHT22;6548;49.996;8.238;2023-03-05T05:29:34;4.50;99.90
12967;DHT22;6548;49.996;8.238;2023-03-05T05:31:59;4.50;99.90
12967;DHT22;6548;49.996;8.238;2023-03-05T05:34:25;4.50;99.90
12967;DHT22;6548;49.996;8.238;2023-03-05T05:36:52;4.40;99.90
12967;DHT22;6548;49.996;8.238;2023-03-05T05:39:18;4.40;99.90
12967;DHT22;6548;49.996;8.238;2023-03-05T05:41:43;4.40;99.90
12967;DHT22;6548;49.996;8.238;2023-03-05T05:44:09;4.50;99.90
12967;DHT22;6548;49.996;8.238;2023-03-05T05:46:35;4.50;99.90
12967;DHT22;6548;49.996;8.238;2023-03-05T05:49:00;4.50;99.90
12967;DHT22;6548;49.996;8.238;2023-03-05T05:51:26;4.40;99.90
12967;DHT22;6548;49.996;8.238;2023-03-05T05:53:52;4.40;99.90
12967;DHT22;6548;49.996;8.238;2023-03-05T05:56:18;4.40;99.90
12967;DHT22;6548;49.996;8.238;2023-03-05T05:58:45;4.30;99.90
12967;DHT22;6548;49.996;8.238;2023-03-05T06:03:46;4.30;99.90
12967;DHT22;6548;49.996;8.238;2023-03-05T06:06:14;4.30;99.90
12967;DHT22;6548;49.996;8.238;2023-03-05T06:08:40;4.40;99.90
12967;DHT22;6548;49.996;8.238;2023-03-05T06:11:06;4.30;99.90
12967;DHT22;6548;49.996;8.238;2023-03-05T06:13:32;4.20;99.90
12967;DHT22;6548;49.996;8.238;2023-03-05T06:15:59;4.20;99.90
12967;DHT22;6548;49.996;8.238;2023-03-05T06:18:25;4.20;99.90
12967;DHT22;6548;49.996;8.238;2023-03-05T06:20:58;4.20;99.90
12967;DHT22;6548;49.996;8.238;2023-03-05T06:23:25;4.20;99.90
12967;DHT22;6548;49.996;8.238;2023-03-05T06:25:51;4.20;99.90
12967;DHT22;6548;49.996;8.238;2023-03-05T06:28:17;4.20;99.90
12967;DHT22;6548;49.996;8.238;2023-03-05T06:30:42;4.20;99.90
12967;DHT22;6548;49.996;8.238;2023-03-05T06:33:08;4.20;99.90
12967;DHT22;6548;49.996;8.238;2023-03-05T06:35:34;4.20;99.90
12967;DHT22;6548;49.996;8.238;2023-03-05T06:38:01;5.40;99.90
12967;DHT22;6548;49.996;8.238;2023-03-05T06:40:27;4.20;99.90
12967;DHT22;6548;49.996;8.238;2023-03-05T06:42:53;4.10;99.90
12967;DHT22;6548;49.996;8.238;2023-03-05T06:45:19;4.20;99.90
12967;DHT22;6548;49.996;8.238;2023-03-05T06:47:44;4.10;99.90
12967;DHT22;6548;49.996;8.238;2023-03-05T06:50:10;5.60;99.90
12967;DHT22;6548;49.996;8.238;2023-03-05T06:52:36;4.20;99.90
12967;DHT22;6548;49.996;8.238;2023-03-05T06:55:04;4.80;99.90
12967;DHT22;6548;49.996;8.238;2023-03-05T06:57:30;4.10;99.90
12967;DHT22;6548;49.996;8.238;2023-03-05T06:59:56;4.10;99.90
12967;DHT22;6548;49.996;8.238;2023-03-05T07:02:21;4.80;99.90
12967;DHT22;6548;49.996;8.238;2023-03-05T07:04:47;4.10;99.90
12967;DHT22;6548;49.996;8.238;2023-03-05T07:07:12;5.30;99.90
12967;DHT22;6548;49.996;8.238;2023-03-05T07:09:38;4.30;99.90
12967;DHT22;6548;49.996;8.238;2023-03-05T07:12:09;4.80;99.90
12967;DHT22;6548;49.996;8.238;2023-03-05T07:14:36;4.90;99.90
12967;DHT22;6548;49.996;8.238;2023-03-05T07:17:02;4.30;99.90
12967;DHT22;6548;49.996;8.238;2023-03-05T07:19:28;4.30;99.90
12967;DHT22;6548;49.996;8.238;2023-03-05T07:21:53;4.50;99.90
12967;DHT22;6548;49.996;8.238;2023-03-05T07:24:19;4.40;99.90
12967;DHT22;6548;49.996;8.238;2023-03-05T07:26:44;4.50;99.90
12967;DHT22;6548;49.996;8.238;2023-03-05T07:29:10;4.60;99.90
12967;DHT22;6548;49.996;8.238;2023-03-05T07:31:35;4.60;99.90
12967;DHT22;6548;49.996;8.238;2023-03-05T07:34:02;5.10;99.90
12967;DHT22;6548;49.996;8.238;2023-03-05T07:36:29;4.50;99.90
12967;DHT22;6548;49.996;8.238;2023-03-05T07:38:54;4.50;99.90
12967;DHT22;6548;49.996;8.238;2023-03-05T07:41:20;4.60;99.90
12967;DHT22;6548;49.996;8.238;2023-03-05T07:43:49;4.60;99.90
12967;DHT22;6548;49.996;8.238;2023-03-05T07:46:17;4.50;99.90
12967;DHT22;6548;49.996;8.238;2023-03-05T07:48:43;4.70;99.90
12967;DHT22;6548;49.996;8.238;2023-03-05T07:51:14;4.70;99.90
12967;DHT22;6548;49.996;8.238;2023-03-05T07:53:41;4.70;99.90
12967;DHT22;6548;49.996;8.238;2023-03-05T07:56:07;4.70;99.90
12967;DHT22;6548;49.996;8.238;2023-03-05T07:58:33;4.70;99.90
12967;DHT22;6548;49.996;8.238;2023-03-05T08:00:59;4.80;99.90
12967;DHT22;6548;49.996;8.238;2023-03-05T08:03:24;4.80;99.90
12967;DHT22;6548;49.996;8.238;2023-03-05T08:05:50;4.70;99.90
12967;DHT22;6548;49.996;8.238;2023-03-05T08:08:15;4.70;99.90
12967;DHT22;6548;49.996;8.238;2023-03-05T08:10:41;5.90;99.90
12967;DHT22;6548;49.996;8.238;2023-03-05T08:13:07;4.80;99.90
12967;DHT22;6548;49.996;8.238;2023-03-05T08:15:32;4.70;99.90
12967;DHT22;6548;49.996;8.238;2023-03-05T08:17:58;4.90;99.90
12967;DHT22;6548;49.996;8.238;2023-03-05T08:20:24;5.40;99.90
12967;DHT22;6548;49.996;8.238;2023-03-05T08:22:50;5.00;99.90
12967;DHT22;6548;49.996;8.238;2023-03-05T08:25:15;5.20;99.90
12967;DHT22;6548;49.996;8.238;2023-03-05T08:27:42;5.30;99.90
12967;DHT22;6548;49.996;8.238;2023-03-05T08:30:12;4.90;99.90
12967;DHT22;6548;49.996;8.238;2023-03-05T08:32:38;5.00;99.90
12967;DHT22;6548;49.996;8.238;2023-03-05T08:35:04;5.00;99.90
12967;DHT22;6548;49.996;8.238;2023-03-05T08:37:31;5.20;99.90
12967;DHT22;6548;49.996;8.238;2023-03-05T08:39:56;5.30;99.90
12967;DHT22;6548;49.996;8.238;2023-03-05T08:42:23;5.40;99.90
12967;DHT22;6548;49.996;8.238;2023-03-05T08:44:48;5.40;99.90
12967;DHT22;6548;49.996;8.238;2023-03-05T08:47:14;5.40;99.90
12967;DHT22;6548;49.996;8.238;2023-03-05T08:49:39;5.40;99.90
12967;DHT22;6548;49.996;8.238;2023-03-05T08:52:05;5.30;99.90
12967;DHT22;6548;49.996;8.238;2023-03-05T08:54:31;5.30;99.90
12967;DHT22;6548;49.996;8.238;2023-03-05T08:56:57;5.40;99.90
12967;DHT22;6548;49.996;8.238;2023-03-05T08:59:22;5.30;99.90
12967;DHT22;6548;49.996;8.238;2023-03-05T09:01:48;6.30;99.90
12967;DHT22;6548;49.996;8.238;2023-03-05T09:04:13;5.40;99.90
12967;DHT22;6548;49.996;8.238;2023-03-05T09:06:40;5.40;99.90
12967;DHT22;6548;49.996;8.238;2023-03-05T09:09:07;5.30;99.90
12967;DHT22;6548;49.996;8.238;2023-03-05T09:11:33;5.40;99.90
12967;DHT22;6548;49.996;8.238;2023-03-05T09:14:04;5.30;99.90
12967;DHT22;6548;49.996;8.238;2023-03-05T09:16:29;5.20;99.90
12967;DHT22;6548;49.996;8.238;2023-03-05T09:18:55;5.30;99.90
12967;DHT22;6548;49.996;8.238;2023-03-05T09:21:21;5.30;99.90
12967;DHT22;6548;49.996;8.238;2023-03-05T09:23:46;5.40;99.90
12967;DHT22;6548;49.996;8.238;2023-03-05T09:26:14;5.40;99.90
12967;DHT22;6548;49.996;8.238;2023-03-05T09:28:43;5.30;99.90
12967;DHT22;6548;49.996;8.238;2023-03-05T09:31:09;5.30;99.90
12967;DHT22;6548;49.996;8.238;2023-03-05T09:33:36;5.40;99.90
12967;DHT22;6548;49.996;8.238;2023-03-05T09:36:02;5.40;99.90
12967;DHT22;6548;49.996;8.238;2023-03-05T09:38:29;5.40;99.90
12967;DHT22;6548;49.996;8.238;2023-03-05T09:41:05;5.30;99.90
12967;DHT22;6548;49.996;8.238;2023-03-05T09:49:17;5.40;99.90
12967;DHT22;6548;49.996;8.238;2023-03-05T09:51:45;5.50;99.90
12967;DHT22;6548;49.996;8.238;2023-03-05T09:54:20;5.40;99.90
12967;DHT22;6548;49.996;8.238;2023-03-05T09:56:50;5.30;99.90
12967;DHT22;6548;49.996;8.238;2023-03-05T10:02:23;5.50;99.90
12967;DHT22;6548;49.996;8.238;2023-03-05T10:07:40;5.80;99.90
12967;DHT22;6548;49.996;8.238;2023-03-05T10:10:42;5.80;99.90
12967;DHT22;6548;49.996;8.238;2023-03-05T10:13:25;6.00;99.90
12967;DHT22;6548;49.996;8.238;2023-03-05T10:27:13;6.30;99.90
12967;DHT22;6548;49.996;8.238;2023-03-05T10:30:03;6.30;99.90
12967;DHT22;6548;49.996;8.238;2023-03-05T10:40:37;6.50;99.90
12967;DHT22;6548;49.996;8.238;2023-03-05T10:43:35;6.20;99.90
12967;DHT22;6548;49.996;8.238;2023-03-05T10:46:03;6.00;99.90
12967;DHT22;6548;49.996;8.238;2023-03-05T10:48:52;6.00;99.90
12967;DHT22;6548;49.996;8.238;2023-03-05T10:51:32;5.90;99.90
12967;DHT22;6548;49.996;8.238;2023-03-05T10:57:02;6.10;99.90
12967;DHT22;6548;49.996;8.238;2023-03-05T10:59:27;6.00;99.90
12967;DHT22;6548;49.996;8.238;2023-03-05T11:02:07;6.20;99.90
12967;DHT22;6548;49.996;8.238;2023-03-05T11:04:35;6.30;99.90
12967;DHT22;6548;49.996;8.238;2023-03-05T11:09:39;6.50;99.90
12967;DHT22;6548;49.996;8.238;2023-03-05T11:12:25;6.40;99.90
12967;DHT22;6548;49.996;8.238;2023-03-05T11:17:47;6.40;99.90
12967;DHT22;6548;49.996;8.238;2023-03-05T11:20:33;6.20;99.90
12967;DHT22;6548;49.996;8.238;2023-03-05T11:23:23;6.10;99.90
12967;DHT22;6548;49.996;8.238;2023-03-05T11:26:21;6.30;99.90
12967;DHT22;6548;49.996;8.238;2023-03-05T11:36:41;6.00;99.90
12967;DHT22;6548;49.996;8.238;2023-03-05T11:39:13;6.00;99.90
12967;DHT22;6548;49.996;8.238;2023-03-05T11:41:49;5.80;99.90
12967;DHT22;6548;49.996;8.238;2023-03-05T11:46:58;5.90;99.90
12967;DHT22;6548;49.996;8.238;2023-03-05T11:49:27;5.70;99.90
12967;DHT22;6548;49.996;8.238;2023-03-05T11:52:06;6.00;99.90
12967;DHT22;6548;49.996;8.238;2023-03-05T11:57:17;6.10;99.90
12967;DHT22;6548;49.996;8.238;2023-03-05T11:59:44;6.10;99.90
12967;DHT22;6548;49.996;8.238;2023-03-05T12:02:22;6.60;99.90
12967;DHT22;6548;49.996;8.238;2023-03-05T12:04:49;6.60;99.90
12967;DHT22;6548;49.996;8.238;2023-03-05T12:07:38;6.60;99.90
12967;DHT22;6548;49.996;8.238;2023-03-05T12:10:06;6.60;99.90
12967;DHT22;6548;49.996;8.238;2023-03-05T12:12:54;6.70;99.90
12967;DHT22;6548;49.996;8.238;2023-03-05T12:18:13;7.00;99.90
12967;DHT22;6548;49.996;8.238;2023-03-05T12:23:55;6.70;99.90
12967;DHT22;6548;49.996;8.238;2023-03-05T12:40:24;6.90;99.90
12967;DHT22;6548;49.996;8.238;2023-03-05T12:53:16;7.10;99.90
12967;DHT22;6548;49.996;8.238;2023-03-05T12:58:16;6.80;99.90
12967;DHT22;6548;49.996;8.238;2023-03-05T13:01:06;6.70;99.90
12967;DHT22;6548;49.996;8.238;2023-03-05T13:03:53;6.60;99.90
12967;DHT22;6548;49.996;8.238;2023-03-05T13:06:30;6.50;99.90
12967;DHT22;6548;49.996;8.238;2023-03-05T13:09:17;6.60;99.90
12967;DHT22;6548;49.996;8.238;2023-03-05T13:11:51;6.50;99.90
12967;DHT22;6548;49.996;8.238;2023-03-05T13:14:38;6.40;99.90
12967;DHT22;6548;49.996;8.238;2023-03-05T13:17:41;6.80;99.90
12967;DHT22;6548;49.996;8.238;2023-03-05T13:25:29;7.00;99.90
12967;DHT22;6548;49.996;8.238;2023-03-05T13:28:10;7.20;99.90
12967;DHT22;6548;49.996;8.238;2023-03-05T13:30:36;7.00;99.90
12967;DHT22;6548;49.996;8.238;2023-03-05T13:33:03;6.80;99.90
12967;DHT22;6548;49.996;8.238;2023-03-05T13:35:32;6.80;99.90
12967;DHT22;6548;49.996;8.238;2023-03-05T13:37:58;7.00;99.90
12967;DHT22;6548;49.996;8.238;2023-03-05T13:40:27;7.00;99.90
12967;DHT22;6548;49.996;8.238;2023-03-05T13:42:54;7.60;99.90
12967;DHT22;6548;49.996;8.238;2023-03-05T13:45:30;6.90;99.90
12967;DHT22;6548;49.996;8.238;2023-03-05T13:48:03;7.10;99.90
12967;DHT22;6548;49.996;8.238;2023-03-05T13:50:38;7.30;99.90
12967;DHT22;6548;49.996;8.238;2023-03-05T13:53:27;7.20;99.90
12967;DHT22;6548;49.996;8.238;2023-03-05T13:56:01;6.90;99.90
12967;DHT22;6548;49.996;8.238;2023-03-05T14:01:14;6.90;99.90
12967;DHT22;6548;49.996;8.238;2023-03-05T14:03:42;7.00;99.90
12967;DHT22;6548;49.996;8.238;2023-03-05T14:06:11;6.90;99.90
12967;DHT22;6548;49.996;8.238;2023-03-05T14:08:39;6.80;99.90
12967;DHT22;6548;49.996;8.238;2023-03-05T14:11:13;6.50;99.90
12967;DHT22;6548;49.996;8.238;2023-03-05T14:13:40;6.50;99.90
12967;DHT22;6548;49.996;8.238;2023-03-05T14:16:07;6.40;99.90
12967;DHT22;6548;49.996;8.238;2023-03-05T14:18:34;6.50;99.90
12967;DHT22;6548;49.996;8.238;2023-03-05T14:23:42;6.30;99.90
12967;DHT22;6548;49.996;8.238;2023-03-05T14:28:42;6.30;99.90
12967;DHT22;6548;49.996;8.238;2023-03-05T14:31:16;6.40;99.90
12967;DHT22;6548;49.996;8.238;2023-03-05T14:33:42;6.50;99.90
12967;DHT22;6548;49.996;8.238;2023-03-05T14:36:09;6.50;99.90
12967;DHT22;6548;49.996;8.238;2023-03-05T14:38:39;6.40;99.90
12967;DHT22;6548;49.996;8.238;2023-03-05T14:43:58;6.30;99.90
12967;DHT22;6548;49.996;8.238;2023-03-05T14:46:24;6.40;99.90
12967;DHT22;6548;49.996;8.238;2023-03-05T14:48:50;6.20;99.90
12967;DHT22;6548;49.996;8.238;2023-03-05T14:51:16;6.10;99.90
12967;DHT22;6548;49.996;8.238;2023-03-05T14:53:44;6.20;99.90
12967;DHT22;6548;49.996;8.238;2023-03-05T14:58:41;6.10;99.90
12967;DHT22;6548;49.996;8.238;2023-03-05T15:01:10;6.10;99.90
12967;DHT22;6548;49.996;8.238;2023-03-05T15:03:36;6.00;99.90
12967;DHT22;6548;49.996;8.238;2023-03-05T15:06:03;6.00;99.90
12967;DHT22;6548;49.996;8.238;2023-03-05T15:08:30;6.00;99.90
12967;DHT22;6548;49.996;8.238;2023-03-05T15:10:58;6.00;99.90
12967;DHT22;6548;49.996;8.238;2023-03-05T15:13:24;6.00;99.90
12967;DHT22;6548;49.996;8.238;2023-03-05T15:15:51;6.00;99.90
12967;DHT22;6548;49.996;8.238;2023-03-05T15:18:19;6.00;99.90
12967;DHT22;6548;49.996;8.238;2023-03-05T15:20:45;6.00;99.90
12967;DHT22;6548;49.996;8.238;2023-03-05T15:23:13;6.00;99.90
12967;DHT22;6548;49.996;8.238;2023-03-05T15:25:39;5.90;99.90
12967;DHT22;6548;49.996;8.238;2023-03-05T15:28:05;5.80;99.90
12967;DHT22;6548;49.996;8.238;2023-03-05T15:30:33;5.90;99.90
12967;DHT22;6548;49.996;8.238;2023-03-05T15:33:02;5.80;99.90
12967;DHT22;6548;49.996;8.238;2023-03-05T15:35:28;5.80;99.90
12967;DHT22;6548;49.996;8.238;2023-03-05T15:37:54;5.90;99.90
12967;DHT22;6548;49.996;8.238;2023-03-05T15:40:20;5.80;99.90
12967;DHT22;6548;49.996;8.238;2023-03-05T15:42:46;5.70;99.90
12967;DHT22;6548;49.996;8.238;2023-03-05T15:45:12;5.70;99.90
12967;DHT22;6548;49.996;8.238;2023-03-05T15:47:38;5.70;99.90
12967;DHT22;6548;49.996;8.238;2023-03-05T15:50:04;5.80;99.90
12967;DHT22;6548;49.996;8.238;2023-03-05T15:52:30;5.80;99.90
12967;DHT22;6548;49.996;8.238;2023-03-05T15:54:55;5.80;99.90
12967;DHT22;6548;49.996;8.238;2023-03-05T15:57:21;5.70;99.90
12967;DHT22;6548;49.996;8.238;2023-03-05T15:59:47;5.70;99.90
12967;DHT22;6548;49.996;8.238;2023-03-05T16:02:12;5.80;99.90
12967;DHT22;6548;49.996;8.238;2023-03-05T16:04:38;5.80;99.90
12967;DHT22;6548;49.996;8.238;2023-03-05T16:07:05;5.80;99.90
12967;DHT22;6548;49.996;8.238;2023-03-05T16:09:37;5.80;99.90
12967;DHT22;6548;49.996;8.238;2023-03-05T16:12:06;5.70;99.90
12967;DHT22;6548;49.996;8.238;2023-03-05T16:14:33;5.60;99.90
12967;DHT22;6548;49.996;8.238;2023-03-05T16:17:00;5.50;99.90
12967;DHT22;6548;49.996;8.238;2023-03-05T16:19:28;6.10;99.90
12967;DHT22;6548;49.996;8.238;2023-03-05T16:21:54;5.60;99.90
12967;DHT22;6548;49.996;8.238;2023-03-05T16:24:20;5.50;99.90
12967;DHT22;6548;49.996;8.238;2023-03-05T16:26:46;5.50;99.90
12967;DHT22;6548;49.996;8.238;2023-03-05T16:29:11;5.50;99.90
12967;DHT22;6548;49.996;8.238;2023-03-05T16:31:37;5.50;99.90
12967;DHT22;6548;49.996;8.238;2023-03-05T16:34:05;5.50;99.90
12967;DHT22;6548;49.996;8.238;2023-03-05T16:36:31;5.40;99.90
12967;DHT22;6548;49.996;8.238;2023-03-05T16:39:01;5.40;99.90
12967;DHT22;6548;49.996;8.238;2023-03-05T16:41:27;5.40;99.90
12967;DHT22;6548;49.996;8.238;2023-03-05T16:43:54;5.40;99.90
12967;DHT22;6548;49.996;8.238;2023-03-05T16:46:24;5.50;99.90
12967;DHT22;6548;49.996;8.238;2023-03-05T16:48:50;5.50;99.90
12967;DHT22;6548;49.996;8.238;2023-03-05T16:51:16;5.40;99.90
12967;DHT22;6548;49.996;8.238;2023-03-05T16:53:42;6.30;99.90
12967;DHT22;6548;49.996;8.238;2023-03-05T16:56:08;5.50;99.90
12967;DHT22;6548;49.996;8.238;2023-03-05T16:58:35;5.50;99.90
12967;DHT22;6548;49.996;8.238;2023-03-05T17:01:01;5.50;99.90
12967;DHT22;6548;49.996;8.238;2023-03-05T17:03:27;5.50;99.90
12967;DHT22;6548;49.996;8.238;2023-03-05T17:05:54;5.50;99.90
12967;DHT22;6548;49.996;8.238;2023-03-05T17:08:20;5.40;99.90
12967;DHT22;6548;49.996;8.238;2023-03-05T17:10:46;5.40;99.90
12967;DHT22;6548;49.996;8.238;2023-03-05T17:13:11;5.30;99.90
12967;DHT22;6548;49.996;8.238;2023-03-05T17:15:37;5.30;99.90
12967;DHT22;6548;49.996;8.238;2023-03-05T17:18:03;5.30;99.90
12967;DHT22;6548;49.996;8.238;2023-03-05T17:20:29;5.30;99.90
12967;DHT22;6548;49.996;8.238;2023-03-05T17:22:55;6.10;99.90
12967;DHT22;6548;49.996;8.238;2023-03-05T17:25:21;5.30;99.90
12967;DHT22;6548;49.996;8.238;2023-03-05T17:27:46;5.20;99.90
12967;DHT22;6548;49.996;8.238;2023-03-05T17:30:13;5.20;99.90
12967;DHT22;6548;49.996;8.238;2023-03-05T17:32:39;5.20;99.90
12967;DHT22;6548;49.996;8.238;2023-03-05T17:35:06;5.20;99.90
12967;DHT22;6548;49.996;8.238;2023-03-05T17:37:32;5.20;99.90
12967;DHT22;6548;49.996;8.238;2023-03-05T17:39:58;5.10;99.90
12967;DHT22;6548;49.996;8.238;2023-03-05T17:42:23;5.20;99.90
12967;DHT22;6548;49.996;8.238;2023-03-05T17:44:49;5.20;99.90
12967;DHT22;6548;49.996;8.238;2023-03-05T17:47:14;5.10;99.90
12967;DHT22;6548;49.996;8.238;2023-03-05T17:49:40;5.10;99.90
12967;DHT22;6548;49.996;8.238;2023-03-05T17:52:05;5.10;99.90
12967;DHT22;6548;49.996;8.238;2023-03-05T17:54:31;5.00;99.90
12967;DHT22;6548;49.996;8.238;2023-03-05T17:56:57;5.00;99.90